Terminal Aerodrome Forecast
Issued by NWS

Home | Current Version | Previous Version | Text Only | Print | Product List | Glossary Off
Versions: 1 2 3 4 5 6 7 8 9 10 11 12 13 14 15

290
FTUS43 KICT 170533
TAFRSL
TAF
KRSL 170533Z 1706/1806 17017G25KT P6SM OVC008
     FM171000 19012KT P6SM BKN008
     FM171200 20011KT P6SM SCT015 BKN060
     FM171700 23007KT P6SM SCT250
     FM172300 32007KT P6SM SCT250
     FM180500 34019G27KT P6SM SCT200=

USA.gov is the U.S. government's official web portal to all federal, state and local government web resources and services.